Airfield :
LOGIN :

Register | Disclaimer

   EN    FR    IT 

 










Legend :    VFR   Marginal VFR   IFR   Intensive IFR   Very Intensive IFR
Visi :
Ceiling :
>= 8 km
>= 3000ft
5 to 8 km
1000 to 3000 ft
1500m to 5 km
500 to 1000 ft
800 to 1500m
200 to 500 ft
< 800m
< 200 ft
Symbols :   Thunderstorms  Fog  Heavy snow  Heavy precipitations  Wind > 20 kt
SIGMETs :     Misc.  Thunderstorms  Icing  Turbulence  Mountain Waves  Volcanic Ashes






- Airport Elevation : 79 ft
- IATA code : SPU


LDSP - Split

CURRENT METAR :
  • 071000Z 12009KT 9999 FEW035 20/13 Q1012 NOSIG

EXPIRED METARs :
  • 070930Z 13010KT 9999 FEW035 20/13 Q1013 NOSIG
  • 070900Z 12010KT 9999 FEW040 20/13 Q1012 NOSIG
  • 070830Z 11010KT CAVOK 20/13 Q1013 NOSIG
  • 070800Z 12008KT CAVOK 19/13 Q1012 NOSIG
  • 070730Z 13007KT 100V160 CAVOK 18/14 Q1013 NOSIG

TAF TAF LDSP
Valid from the 07 at 06:00 until the 08 at 06:00 UTC


070525Z 0706/0806 09008KT CAVOK TX21/0712Z TN14/0804Z
PROB40 0712/0716 23008KT
PROB30
TEMPO 0717/0722 SHRA FEW035TCU SCT040
PROB30
TEMPO 0722/0801 33015KT TSRA FEW030CB BKN040
BECMG 0800/0802 05010KT



MET'MAP, your aeronautical weather chart ! - Copyright ORBIFLY December 2007 - Disclaimer

ORBIFLY MET'MAP TEAM :

Programming & Development : Alexandra Zaïnal
Concept & original design : Baudouin d'Aumeries
Assistance for programming : Marc-Olivier Méhu
Technical & hardware support : Manuel Goepfert

Contact : metmap@orbifly.com




SOURCES & CREDITS :

   NOAA